Flight Track Log - Related Links

Times and Time Zones

All times are in EDT time to prevent confusion due to time zone crossing. See the UAL395 flight status page for this flight to view local times or setup timezone preferences in your user account.

Time Position Orientation Groundspeed Altitude Reporting Facility
EDT Latitude Longitude Course Direction KTS MPH feet Rate Location/Type
Sun 07:59:59 AM 28.4167 -81.3167 270° West 155 178 800  Level Orlando TRACON
Sun 08:00:59 AM 28.3667 -81.3500 210° Southwest 221 254 2,500 2,048 Climbing Orlando TRACON
Sun 08:02:05 AM 28.3500 -81.4333 257° West 306 352 5,100 3,215 Climbing Orlando TRACON
Sun 08:03:00 AM 28.4167 -81.7748 270° West  Level FlightAware Approximate
Sun 08:04:00 AM 28.4167 -81.8935 270° West  Level FlightAware Approximate
Sun 08:04:28 AM 28.3733 -81.6492 277° West 296 341 13,700  Level Jacksonville Center
Sun 08:05:00 AM 28.4167 -82.0122 270° West  Level FlightAware Approximate
Sun 08:05:28 AM 28.3619 -81.7628 264° West 344 396 14,800  Level Jacksonville Center
Sun 08:06:28 AM 28.3358 -81.8833 256° West 368 423 17,000 1,900 Climbing Jacksonville Center
Sun 08:07:28 AM 28.3097 -82.0108 257° West 390 449 18,600 950 Climbing Jacksonville Center
Sun 08:08:28 AM 28.2856 -82.1358 258° West 406 467 18,900 850 Climbing Jacksonville Center
Sun 08:09:28 AM 28.2569 -82.2633 256° West 411 473 20,300 1,450 Climbing Jacksonville Center
Sun 08:10:28 AM 28.2283 -82.3931 256° West 417 480 21,800 1,400 Climbing Jacksonville Center
Sun 08:11:28 AM 28.1994 -82.5253 256° West 422 486 23,100 1,094 Climbing Jacksonville Center
Sun 08:13:51 AM 28.1275 -82.8544 256° West 450 518 25,500 1,212 Climbing Miami Center
Sun 08:14:51 AM 28.0944 -82.9961 255° West 461 531 27,200 1,550 Climbing Miami Center
Sun 08:15:51 AM 28.0653 -83.1356 257° West 461 531 28,600 1,300 Climbing Miami Center
Sun 08:16:51 AM 28.0342 -83.2747 256° West 461 531 29,800 1,050 Climbing Miami Center
Sun 08:17:51 AM 28.0508 -83.4144 278° West 453 521 30,700 1,000 Climbing Miami Center
Sun 08:18:51 AM 28.0800 -83.5525 283° West 453 521 31,800 777 Climbing Miami Center
Sun 08:21:04 AM 28.1381 -83.8481 283° West 449 517 33,200 653 Climbing Jacksonville Center
Sun 08:22:04 AM 28.1619 -83.9850 281° West 449 517 33,900 350 Climbing Jacksonville Center
Sun 08:23:04 AM 28.1858 -84.1125 282° West 443 510 33,900  Level Jacksonville Center
Sun 08:24:04 AM 28.2117 -84.2447 283° West 431 496 33,900  Level Jacksonville Center
Sun 08:25:04 AM 28.2372 -84.3792 282° West 431 496 33,900  Level Jacksonville Center
Sun 08:26:04 AM 28.2589 -84.4950 282° West 431 496 33,900 350 Level Jacksonville Center
Sun 08:27:04 AM 28.2822 -84.6297 281° West 431 496 34,600 800 Climbing Jacksonville Center
Sun 08:28:04 AM 28.3056 -84.7575 282° West 431 496 35,500 650 Climbing Jacksonville Center
Sun 08:29:04 AM 28.3306 -84.8875 282° West 426 490 35,900 200 Climbing Jacksonville Center
Sun 08:30:04 AM 28.3536 -85.0225 281° West 431 496 35,900  Level Jacksonville Center
Sun 08:31:04 AM 28.3764 -85.1481 282° West 426 490 35,900  Level Jacksonville Center
Sun 08:32:04 AM 28.4011 -85.2783 282° West 426 490 35,900  Level Jacksonville Center
Sun 08:33:04 AM 28.4239 -85.4039 282° West 421 484 35,900  Level Jacksonville Center
Sun 08:34:04 AM 28.4461 -85.5367 281° West 415 478 35,900 50 Level Jacksonville Center
Sun 08:35:04 AM 28.4686 -85.6578 282° West 415 478 36,000 50 Climbing Jacksonville Center
Sun 08:36:04 AM 28.4928 -85.7906 282° West 407 468 36,000 -50 Level Jacksonville Center
Sun 08:37:04 AM 28.5150 -85.9164 281° West 415 478 35,900 -50 Descending Jacksonville Center
Sun 08:38:04 AM 28.5389 -86.0472 282° West 417 480 35,900  Level Jacksonville Center
Sun 08:39:04 AM 28.5608 -86.1753 281° West 410 472 35,900  Level Jacksonville Center
Sun 08:40:04 AM 28.5806 -86.2967 281° West 410 472 35,900  Level Jacksonville Center
Sun 08:41:04 AM 28.6042 -86.4275 282° West 415 478 35,900  Level Jacksonville Center
Sun 08:42:04 AM 28.6278 -86.5561 282° West 415 478 35,900  Level Jacksonville Center
Sun 08:43:04 AM 28.6469 -86.6844 280° West 415 478 35,900 50 Level Jacksonville Center
Sun 08:44:04 AM 28.6700 -86.8178 281° West 415 478 36,000 -500 Climbing Jacksonville Center
Sun 08:45:04 AM 28.6911 -86.9486 280° West 422 486 34,900 -1,650 Descending Jacksonville Center
Sun 08:46:04 AM 28.7119 -87.0772 280° West 422 486 32,700 -2,200 Descending Jacksonville Center
Sun 08:47:04 AM 28.7367 -87.2133 282° West 429 494 30,500 -1,400 Descending Jacksonville Center
Sun 08:48:04 AM 28.7550 -87.3467 279° West 429 494 29,900 -303 Descending Jacksonville Center
Sun 08:49:03 AM 28.7806 -87.4931 281° West 453 521 29,900  Level Houston Center
Sun 08:50:04 AM 28.8036 -87.6331 281° West 452 520 29,900  Level Houston Center
Sun 08:51:05 AM 28.8258 -87.7744 280° West 453 521 29,900  Level Houston Center
Sun 08:52:07 AM 28.8481 -87.9133 280° West 450 518 29,900 49 Level Houston Center
Sun 08:53:08 AM 28.8719 -88.0761 280° West 454 522 30,000  Climbing Houston Center
Sun 08:54:09 AM 28.8947 -88.2128 281° West 448 516 29,900 -49 Descending Houston Center
Sun 08:55:10 AM 28.9150 -88.3522 279° West 447 514 29,900  Level Houston Center
Sun 08:56:11 AM 28.9350 -88.4917 279° West 446 513 29,900  Level Houston Center
Sun 08:57:12 AM 28.9556 -88.6306 280° West 446 513 29,900  Level Houston Center
Sun 08:58:13 AM 28.9764 -88.7706 280° West 448 516 29,900  Level Houston Center
Sun 08:59:14 AM 28.9961 -88.9081 279° West 442 509 29,900  Level Houston Center
Sun 09:00:15 AM 29.0156 -89.0436 279° West 437 503 29,900  Level Houston Center
Sun 09:01:17 AM 29.0347 -89.1831 279° West 441 507 29,900  Level Houston Center
Sun 09:02:18 AM 29.0544 -89.3200 279° West 440 506 29,900  Level Houston Center
Sun 09:03:19 AM 29.0731 -89.4569 279° West 438 504 29,900  Level Houston Center
Sun 09:04:20 AM 29.1031 -89.6233 282° West 443 510 29,900  Level Houston Center
Sun 09:05:21 AM 29.1492 -89.7483 293° West 426 490 29,900  Level Houston Center
Sun 09:06:22 AM 29.1933 -89.8811 291° West 438 504 29,900  Level Houston Center
Sun 09:07:24 AM 29.2364 -90.0122 291° West 440 506 29,900  Level Houston Center
Sun 09:08:25 AM 29.2808 -90.1444 291° West 442 509 29,900  Level Houston Center
Sun 09:09:26 AM 29.3261 -90.2731 292° West 437 503 29,900 49 Level Houston Center
Sun 09:10:27 AM 29.3706 -90.4017 292° West 434 499 30,000  Climbing Houston Center
Sun 09:11:28 AM 29.4158 -90.5333 292° West 439 505 29,900 -49 Descending Houston Center
Sun 09:12:29 AM 29.4619 -90.6625 292° West 438 504 29,900  Level Houston Center
Sun 09:13:30 AM 29.5072 -90.7942 292° West 441 507 29,900 49 Level Houston Center
Sun 09:14:32 AM 29.5428 -90.9283 287° West 440 506 30,000  Climbing Houston Center
Sun 09:15:33 AM 29.5392 -91.0656 268° West 434 499 29,900 -49 Descending Houston Center
Sun 09:16:34 AM 29.5325 -91.2022 267° West 428 493 29,900  Level Houston Center
Sun 09:17:35 AM 29.5228 -91.3625 266° West 422 486 29,900  Level Houston Center
Sun 09:18:36 AM 29.5156 -91.4964 266° West 421 484 29,900  Level Houston Center
Sun 09:19:37 AM 29.5075 -91.6297 266° West 420 483 29,900  Level Houston Center
Sun 09:20:39 AM 29.4997 -91.7628 266° West 420 483 29,900  Level Houston Center
Sun 09:21:40 AM 29.4911 -91.8975 266° West 423 487 29,900  Level Houston Center
Sun 09:22:41 AM 29.4831 -92.0294 266° West 419 482 29,900  Level Houston Center
Sun 09:23:42 AM 29.4744 -92.1622 266° West 416 479 29,900  Level Houston Center
Sun 09:24:43 AM 29.4664 -92.2936 266° West 415 478 29,900  Level Houston Center
Sun 09:25:44 AM 29.4586 -92.4267 266° West 416 479 29,900 49 Level Houston Center
Sun 09:26:46 AM 29.4603 -92.5625 271° West 422 486 30,000  Climbing Houston Center
Sun 09:27:47 AM 29.4683 -92.7225 273° West 419 482 29,900 -49 Descending Houston Center
Sun 09:28:48 AM 29.4744 -92.8592 273° West 426 490 29,900  Level Houston Center
Sun 09:29:49 AM 29.4811 -92.9972 273° West 431 496 29,900  Level Houston Center
Sun 09:30:50 AM 29.4872 -93.1358 273° West 435 501 29,900  Level Houston Center
Sun 09:31:52 AM 29.4928 -93.2750 273° West 436 502 29,900 -878 Level Houston Center
Sun 09:32:53 AM 29.4981 -93.4114 273° West 429 494 28,100 -1,869 Descending Houston Center
Sun 09:33:54 AM 29.5036 -93.5431 273° West 416 479 26,100 -1,967 Descending Houston Center
Sun 09:34:55 AM 29.5081 -93.6711 272° West 406 467 24,100 -2,016 Descending Houston Center
Sun 09:35:56 AM 29.5131 -93.7964 273° West 397 457 22,000 -2,069 Descending Houston Center
Sun 09:36:51 AM 29.5169 -93.9244 272° West 379 436 20,100 -2,093 Descending Houston Center
Sun 09:37:22 AM 29.5208 -93.9817 274° West 370 426 19,000 -1,853 Descending Houston Center
Sun 09:37:59 AM 29.5217 -94.0333 271° West 368 423 18,000 -1,869 Descending Houston Center
Sun 09:38:23 AM 29.5236 -94.0917 272° West 360 414 17,100 -1,967 Descending Houston Center
Sun 09:39:00 AM 29.5261 -94.1472 273° West 359 413 16,000 -2,129 Descending Houston Center
Sun 09:39:25 AM 29.5272 -94.2114 271° West 351 404 14,900 -2,066 Descending Houston Center
Sun 09:40:01 AM 29.5300 -94.2633 274° West 348 400 13,900 -1,831 Descending Houston Center
Sun 09:40:24 AM 29.5317 -94.3189 272° West 341 392 13,100 -1,869 Descending Houston Center
Sun 09:41:02 AM 29.5436 -94.3661 286° West 333 383 12,000 -1,869 Descending Houston Center
Sun 09:41:25 AM 29.5625 -94.4161 293° West 313 360 11,200 -1,869 Descending Houston Center
Sun 09:42:03 AM 29.5806 -94.4544 298° West 311 358 10,100 -2,361 Descending Houston Center
Sun 09:42:26 AM 29.6003 -94.5025 295° West 294 338 8,800 -2,262 Descending Houston Center
Sun 09:43:04 AM 29.6156 -94.5386 296° West 295 339 7,800 -2,164 Descending Houston Center
Sun 09:43:27 AM 29.6358 -94.5869 296° West 283 326 6,600 -1,742 Descending Houston Center
Sun 09:44:06 AM 29.6569 -94.6336 298° West 281 323 6,000 -590 Descending Houston Center
Sun 09:44:28 AM 29.6686 -94.6644 294° West 275 316 6,000  Level Houston Center
Sun 09:45:07 AM 29.6911 -94.7133 298° West 280 322 6,000  Level Houston Center
Sun 09:45:28 AM 29.7039 -94.7467 294° West 282 325 6,000  Level Houston Center
Sun 09:46:08 AM 29.7247 -94.7942 297° West 282 325 6,000  Level Houston Center
Sun 09:46:29 AM 29.7369 -94.8267 293° West 280 322 6,000  Level Houston Center
Sun 09:47:09 AM 29.7586 -94.8733 298° West 280 322 6,000  Level Houston Center
Sun 09:47:30 AM 29.7719 -94.9089 293° West 276 318 6,000  Level Houston Center
Sun 09:48:10 AM 29.7919 -94.9525 298° West 278 320 6,000  Level Houston Center
Sun 09:48:31 AM 29.8072 -94.9914 294° West 277 319 6,000  Level Houston Center
Sun 09:49:12 AM 29.8253 -95.0314 297° West 277 319 6,000  Level Houston Center
Sun 09:49:32 AM 29.8419 -95.0714 296° West 274 315 6,000  Level Houston Center
Sun 09:50:13 AM 29.8589 -95.1103 297° West 277 319 6,000  Level Houston Center
Sun 09:50:33 AM 29.8744 -95.1492 295° West 277 319 6,000  Level Houston Center
Sun 09:51:14 AM 29.8981 -95.2050 296° West 276 318 6,000  Level Houston Center
Sun 09:51:34 AM 29.8994 -95.2378 273° West 280 322 6,000  Level Houston Center
Sun 09:52:15 AM 29.8994 -95.2939 270° West 279 321 6,000  Level Houston Center
Sun 09:52:35 AM 29.8992 -95.3269 269° West 280 322 6,000  Level Houston Center
Sun 09:53:17 AM 29.9014 -95.3844 273° West 283 326 6,000  Level Houston Center
Sun 09:53:36 AM 29.8992 -95.4186 266° West 291 335 6,000  Level Houston Center
Sun 09:54:18 AM 29.9011 -95.4750 272° West 284 327 6,000 -197 Level Houston Center
Sun 09:54:37 AM 29.9006 -95.5028 269° West 243 280 5,800 -787 Descending Houston Center
Sun 09:55:19 AM 29.9006 -95.5533 270° West 254 292 5,200 -1,082 Descending Houston Center
Sun 09:55:38 AM 29.9039 -95.5844 277° West 235 270 4,700 -1,082 Descending Houston Center
Sun 09:56:20 AM 29.9325 -95.6056 327° Northwest 232 267 4,100 -1,279 Descending Houston Center
Sun 09:56:39 AM 29.9603 -95.6067 358° North 225 259 3,400 -1,065 Descending Houston Center
Sun 09:57:22 AM 29.9903 -95.5869 30° Northeast 237 273 3,000 -393 Descending Houston Center
Sun 09:57:40 AM 29.9914 -95.5547 88° East 231 266 3,000  Level Houston Center
Sun 09:58:23 AM 29.9931 -95.5167 87° East 222 255 3,000 -492 Level Houston Center
Sun 09:58:41 AM 29.9917 -95.4872 93° East 206 237 2,500 -1,180 Descending Houston Center
Sun 09:59:24 AM 29.9936 -95.4533 86° East 206 237 1,800 -1,082 Descending Houston Center
Sun 09:59:42 AM 29.9931 -95.4339 92° East 152 175 1,400 -1,333 Descending Houston Center

Login

Don't have an account? Register now (free) for customized features, flight alerts, and more!